createdAt,value
2023-02-17T00:00:13.279Z,15.80
2023-02-17T00:02:40.106Z,15.75
2023-02-17T00:05:07.150Z,15.72
2023-02-17T00:07:34.391Z,15.80
2023-02-17T00:10:00.943Z,15.90
2023-02-17T00:12:28.002Z,15.74
2023-02-17T00:14:54.570Z,15.74
2023-02-17T00:17:21.181Z,15.80
2023-02-17T00:19:47.727Z,15.84
2023-02-17T00:22:14.291Z,15.83
2023-02-17T00:24:41.062Z,15.83
2023-02-17T00:27:07.707Z,15.75
2023-02-17T00:29:34.346Z,15.82
2023-02-17T00:32:01.001Z,15.79
2023-02-17T00:34:28.208Z,15.66
2023-02-17T00:36:54.847Z,15.78
2023-02-17T00:39:21.494Z,15.74
2023-02-17T00:41:49.107Z,15.81
2023-02-17T00:44:18.805Z,15.75
2023-02-17T00:46:46.551Z,15.75
2023-02-17T00:49:19.793Z,15.67
2023-02-17T00:51:47.248Z,15.74
2023-02-17T00:54:14.876Z,15.71
2023-02-17T00:56:42.423Z,15.67
2023-02-17T00:59:09.157Z,15.64
2023-02-17T01:01:36.296Z,15.54
2023-02-17T01:04:03.038Z,15.51
2023-02-17T01:06:33.150Z,15.52
2023-02-17T01:09:00.792Z,15.53
2023-02-17T01:11:29.915Z,15.51
2023-02-17T01:13:58.889Z,15.49
2023-02-17T01:16:29.836Z,15.44
2023-02-17T01:18:59.107Z,15.36
2023-02-17T01:21:27.836Z,15.34
2023-02-17T01:23:57.152Z,15.22
2023-02-17T01:26:26.365Z,15.22
2023-02-17T01:28:54.252Z,15.10
2023-02-17T01:31:22.106Z,15.04
2023-02-17T01:33:49.076Z,15.01
2023-02-17T01:36:17.972Z,15.03
2023-02-17T01:38:46.364Z,15.06
2023-02-17T01:41:15.943Z,14.99
2023-02-17T01:43:42.792Z,14.99
2023-02-17T01:46:09.707Z,14.99
2023-02-17T01:48:37.892Z,14.96
2023-02-17T01:51:09.456Z,15.23
2023-02-17T01:53:56.646Z,15.15
2023-02-17T01:56:24.327Z,15.20
2023-02-17T01:59:00.552Z,15.21
2023-02-17T02:01:27.724Z,15.47
2023-02-17T02:03:56.227Z,15.67
2023-02-17T02:06:26.174Z,15.69
2023-02-17T02:09:09.511Z,15.80
2023-02-17T02:11:37.137Z,15.84
2023-02-17T02:14:06.832Z,15.86
2023-02-17T02:16:47.301Z,15.85
2023-02-17T02:19:41.288Z,15.81
2023-02-17T02:22:15.598Z,15.87
2023-02-17T02:24:45.142Z,15.93
2023-02-17T02:27:38.696Z,16.06
2023-02-17T02:30:42.422Z,16.05
2023-02-17T02:33:12.089Z,16.14
2023-02-17T02:35:56.408Z,16.15
2023-02-17T02:38:41.851Z,15.96
2023-02-17T02:41:19.117Z,16.17
2023-02-17T02:43:45.634Z,16.15
2023-02-17T02:46:12.243Z,16.16
2023-02-17T02:48:40.060Z,16.21
2023-02-17T02:51:24.355Z,16.30
2023-02-17T02:53:58.868Z,16.34
2023-02-17T02:57:01.060Z,16.25
2023-02-17T02:59:58.048Z,16.24
2023-02-17T03:02:59.511Z,16.25
2023-02-17T03:05:55.742Z,16.14
2023-02-17T03:08:42.753Z,16.06
2023-02-17T03:11:09.622Z,16.06
2023-02-17T03:13:39.456Z,15.98
2023-02-17T03:16:08.775Z,16.00
2023-02-17T03:18:36.223Z,15.95
2023-02-17T03:21:11.176Z,15.95
2023-02-17T03:23:37.744Z,16.15
2023-02-17T03:26:04.905Z,16.05
2023-02-17T03:28:32.559Z,15.49
2023-02-17T03:30:59.362Z,15.55
2023-02-17T03:33:25.985Z,15.87
2023-02-17T03:35:52.596Z,15.85
2023-02-17T03:38:19.208Z,15.94
2023-02-17T03:40:45.756Z,15.86
2023-02-17T03:43:12.321Z,15.76
2023-02-17T03:45:40.338Z,16.10
2023-02-17T03:48:06.912Z,15.80
2023-02-17T03:50:33.479Z,15.66
2023-02-17T03:53:00.094Z,15.97
2023-02-17T03:55:26.656Z,15.72
2023-02-17T03:57:53.229Z,16.07
2023-02-17T04:00:20.162Z,16.14
2023-02-17T04:02:46.828Z,16.15
2023-02-17T04:05:13.447Z,16.00
2023-02-17T04:07:40.188Z,15.80
2023-02-17T04:10:09.410Z,15.79
2023-02-17T04:12:36.334Z,16.00
2023-02-17T04:15:02.961Z,15.71
2023-02-17T04:17:29.556Z,16.16
2023-02-17T04:19:56.360Z,16.04
2023-02-17T04:22:23.029Z,16.01
2023-02-17T04:24:49.685Z,16.18
2023-02-17T04:27:16.296Z,16.10
2023-02-17T04:29:42.924Z,16.06
2023-02-17T04:32:09.550Z,15.90
2023-02-17T04:34:36.176Z,16.04
2023-02-17T04:37:02.730Z,16.03
2023-02-17T04:39:29.570Z,15.93
2023-02-17T04:41:56.248Z,15.97
2023-02-17T04:44:22.963Z,15.74
2023-02-17T04:46:49.523Z,16.11
2023-02-17T04:49:16.176Z,15.93
2023-02-17T04:51:42.807Z,16.20
2023-02-17T04:54:09.540Z,16.34
2023-02-17T04:56:36.130Z,15.63
2023-02-17T04:59:02.762Z,15.73
2023-02-17T05:01:29.410Z,16.08
2023-02-17T05:03:56.176Z,15.30
2023-02-17T05:06:22.757Z,15.42
2023-02-17T05:08:50.619Z,15.79
2023-02-17T05:11:17.151Z,16.10
2023-02-17T05:13:43.845Z,15.96
2023-02-17T05:16:10.498Z,15.68
2023-02-17T05:18:37.196Z,16.32
2023-02-17T05:21:03.937Z,16.29
2023-02-17T05:23:30.609Z,16.31
2023-02-17T05:25:57.180Z,16.20
2023-02-17T05:28:23.870Z,16.33
2023-02-17T05:30:50.863Z,15.60
2023-02-17T05:33:17.510Z,16.30
2023-02-17T05:35:44.060Z,15.85
2023-02-17T05:38:10.618Z,16.31
2023-02-17T05:40:37.321Z,16.12
2023-02-17T05:43:03.948Z,16.24
2023-02-17T05:45:30.596Z,15.88
2023-02-17T05:47:57.682Z,16.17
2023-02-17T05:50:24.587Z,16.11
2023-02-17T05:52:51.204Z,16.31
2023-02-17T05:55:18.173Z,16.09
2023-02-17T05:57:44.765Z,15.90
2023-02-17T06:00:12.282Z,16.24
2023-02-17T06:02:38.904Z,16.01
2023-02-17T06:05:05.813Z,16.35
2023-02-17T06:07:32.520Z,16.02
2023-02-17T06:09:59.091Z,15.48
2023-02-17T06:12:25.768Z,15.90
2023-02-17T06:14:52.619Z,16.45
2023-02-17T06:17:19.167Z,16.32
2023-02-17T06:19:45.842Z,16.40
2023-02-17T06:22:12.505Z,16.65
2023-02-17T06:24:39.126Z,15.85
2023-02-17T06:27:05.692Z,16.45
2023-02-17T06:29:32.360Z,16.12
2023-02-17T06:31:59.055Z,16.55
2023-02-17T06:34:25.725Z,16.44
2023-02-17T06:36:52.271Z,16.04
2023-02-17T06:39:19.106Z,16.11
2023-02-17T06:41:45.806Z,15.84
2023-02-17T06:44:12.499Z,15.97
2023-02-17T06:46:39.144Z,16.17
2023-02-17T06:49:06.173Z,16.12
2023-02-17T06:51:34.968Z,15.97
2023-02-17T06:54:01.622Z,16.19
2023-02-17T06:56:28.260Z,16.43
2023-02-17T06:58:54.909Z,16.49
2023-02-17T07:01:26.472Z,15.82
2023-02-17T07:03:53.705Z,16.65
2023-02-17T07:06:20.778Z,16.27
2023-02-17T07:08:47.408Z,16.13
2023-02-17T07:11:14.704Z,16.14
2023-02-17T07:13:44.501Z,16.25
2023-02-17T07:16:13.093Z,15.79
2023-02-17T07:18:40.665Z,16.08
2023-02-17T07:21:09.543Z,16.76
2023-02-17T07:23:36.795Z,16.31
2023-02-17T07:26:09.156Z,16.84
2023-02-17T07:28:36.538Z,17.16
2023-02-17T07:31:07.904Z,16.17
2023-02-17T07:33:35.824Z,16.34
2023-02-17T07:36:13.935Z,17.12
2023-02-17T07:38:41.288Z,16.82
2023-02-17T07:41:19.915Z,16.61
2023-02-17T07:43:47.768Z,17.38
2023-02-17T07:46:16.987Z,17.73
2023-02-17T07:48:43.701Z,17.50
2023-02-17T07:51:13.070Z,17.79
2023-02-17T07:53:39.815Z,17.44
2023-02-17T07:56:10.116Z,16.58
2023-02-17T07:58:39.825Z,16.73
2023-02-17T08:01:18.892Z,17.30
2023-02-17T08:03:45.936Z,17.19
2023-02-17T08:06:14.857Z,16.44
2023-02-17T08:09:00.756Z,16.90
2023-02-17T08:11:48.222Z,17.05
2023-02-17T08:14:16.064Z,16.64
2023-02-17T08:16:42.619Z,16.78
2023-02-17T08:19:09.273Z,16.57
2023-02-17T08:21:35.941Z,16.32
2023-02-17T08:24:02.495Z,16.76
2023-02-17T08:26:29.121Z,17.39
2023-02-17T08:28:56.171Z,17.31
2023-02-17T08:31:28.713Z,17.75
2023-02-17T08:33:55.923Z,17.86
2023-02-17T08:36:24.671Z,17.51
2023-02-17T08:38:54.696Z,16.88
2023-02-17T08:41:30.417Z,16.36
2023-02-17T08:43:59.080Z,16.41
2023-02-17T08:46:26.869Z,16.94
2023-02-17T08:48:53.883Z,16.93
2023-02-17T08:51:23.765Z,17.82
2023-02-17T08:53:51.441Z,17.35
2023-02-17T08:56:18.136Z,17.33
2023-02-17T08:58:44.670Z,17.29
2023-02-17T09:01:11.363Z,18.16
2023-02-17T09:03:39.251Z,17.36
2023-02-17T09:06:07.287Z,17.10
2023-02-17T09:08:34.349Z,16.84
2023-02-17T09:11:01.392Z,16.57
2023-02-17T09:13:28.227Z,17.21
2023-02-17T09:15:54.982Z,16.22
2023-02-17T09:18:23.306Z,16.39
2023-02-17T09:20:50.258Z,15.30
2023-02-17T09:23:17.497Z,16.08
2023-02-17T09:25:44.606Z,16.43
2023-02-17T09:28:11.899Z,16.87
2023-02-17T09:30:38.588Z,16.44
2023-02-17T09:33:05.403Z,16.93
2023-02-17T09:35:33.058Z,16.59
2023-02-17T09:38:00.188Z,16.72
2023-02-17T09:40:47.340Z,17.36
2023-02-17T09:43:16.892Z,16.96
2023-02-17T09:45:54.600Z,16.13
2023-02-17T09:48:26.703Z,16.84
2023-02-17T09:51:27.711Z,17.15
2023-02-17T09:54:08.234Z,17.17
2023-02-17T09:56:39.755Z,17.14
2023-02-17T09:59:14.181Z,17.08
2023-02-17T10:01:41.866Z,16.66
2023-02-17T10:04:21.030Z,17.29
2023-02-17T10:06:52.617Z,17.43
2023-02-17T10:09:40.919Z,17.52
2023-02-17T10:12:14.668Z,18.13
2023-02-17T10:14:52.120Z,17.90
2023-02-17T10:17:37.759Z,17.91
2023-02-17T10:20:09.130Z,18.22
2023-02-17T10:22:36.236Z,17.93
2023-02-17T10:25:16.867Z,18.66
2023-02-17T10:27:47.363Z,18.38
2023-02-17T10:30:31.464Z,17.76
2023-02-17T10:33:11.862Z,18.10
2023-02-17T10:35:53.321Z,18.44
2023-02-17T10:39:07.107Z,18.86
2023-02-17T10:41:38.507Z,18.46
2023-02-17T10:44:16.584Z,18.91
2023-02-17T10:46:44.266Z,18.42
2023-02-17T10:49:28.013Z,18.95
2023-02-17T10:51:54.640Z,17.96
2023-02-17T10:54:36.426Z,18.93
2023-02-17T10:57:08.056Z,19.09
2023-02-17T10:59:45.810Z,18.33
2023-02-17T11:02:18.417Z,18.48
2023-02-17T11:04:49.016Z,18.97
2023-02-17T11:07:19.496Z,19.67
2023-02-17T11:09:56.180Z,20.06
2023-02-17T11:12:32.521Z,19.87
2023-02-17T11:15:02.911Z,20.28
2023-02-17T11:17:35.898Z,19.12
2023-02-17T11:20:09.277Z,20.11
2023-02-17T11:23:00.573Z,21.23
2023-02-17T11:25:33.560Z,21.03
2023-02-17T11:28:06.798Z,19.87
2023-02-17T11:30:35.276Z,19.75
2023-02-17T11:33:19.998Z,19.36
2023-02-17T11:35:54.152Z,19.74
2023-02-17T11:38:29.351Z,19.66
2023-02-17T11:41:00.445Z,22.12
2023-02-17T11:43:28.652Z,22.00
2023-02-17T11:46:20.506Z,22.59
2023-02-17T11:48:53.136Z,21.52
2023-02-17T11:51:26.985Z,20.80
2023-02-17T11:53:56.393Z,19.43
2023-02-17T11:56:29.465Z,18.73
2023-02-17T11:59:30.086Z,18.84
2023-02-17T12:02:08.946Z,19.34
2023-02-17T12:04:49.025Z,18.19
2023-02-17T12:07:21.675Z,19.20
2023-02-17T12:10:16.352Z,19.69
2023-02-17T12:12:45.948Z,19.24
2023-02-17T12:15:46.624Z,19.14
2023-02-17T12:18:22.213Z,21.87
2023-02-17T12:21:16.079Z,21.94
2023-02-17T12:24:28.550Z,20.79
2023-02-17T12:27:11.146Z,20.80
2023-02-17T12:29:55.991Z,19.87
2023-02-17T12:32:43.536Z,18.59
2023-02-17T12:35:23.627Z,19.09
2023-02-17T12:38:00.837Z,19.32
2023-02-17T12:40:37.670Z,20.04
2023-02-17T12:43:40.472Z,19.47
2023-02-17T12:46:12.140Z,20.02
2023-02-17T12:48:46.782Z,19.99
2023-02-17T12:51:26.322Z,19.45
2023-02-17T12:54:05.242Z,19.91
2023-02-17T12:56:50.983Z,19.59
2023-02-17T12:59:32.928Z,20.56
2023-02-17T13:02:06.395Z,19.63
2023-02-17T13:04:35.308Z,19.58
2023-02-17T13:07:21.278Z,19.46
2023-02-17T13:09:49.446Z,19.22
2023-02-17T13:12:31.734Z,19.03
2023-02-17T13:15:00.886Z,18.81
2023-02-17T13:17:31.946Z,18.68
2023-02-17T13:20:06.366Z,18.79
2023-02-17T13:22:33.344Z,18.80
2023-02-17T13:25:00.763Z,19.34
2023-02-17T13:27:33.613Z,18.06
2023-02-17T13:30:21.515Z,18.32
2023-02-17T13:33:00.411Z,19.16
2023-02-17T13:35:26.918Z,20.08
2023-02-17T13:37:55.028Z,19.77
2023-02-17T13:40:22.656Z,18.74
2023-02-17T13:42:51.572Z,19.54
2023-02-17T13:45:29.306Z,19.38
2023-02-17T13:48:10.733Z,19.47
2023-02-17T13:50:43.360Z,19.35
2023-02-17T13:53:37.983Z,19.27
2023-02-17T13:56:08.866Z,18.77
2023-02-17T13:58:38.356Z,18.91
2023-02-17T14:01:08.038Z,18.88
2023-02-17T14:03:41.540Z,18.77
2023-02-17T14:06:23.344Z,19.32
2023-02-17T14:08:49.979Z,19.28
2023-02-17T14:11:23.042Z,18.14
2023-02-17T14:13:51.699Z,17.95
2023-02-17T14:16:31.949Z,18.69
2023-02-17T14:19:11.047Z,18.96
2023-02-17T14:21:40.733Z,19.29
2023-02-17T14:24:07.424Z,18.49
2023-02-17T14:26:47.343Z,18.54
2023-02-17T14:29:14.990Z,18.47
2023-02-17T14:31:49.144Z,18.37
2023-02-17T14:34:34.076Z,18.13
2023-02-17T14:37:09.362Z,18.74
2023-02-17T14:39:35.952Z,19.57
2023-02-17T14:42:02.604Z,19.45
2023-02-17T14:44:29.278Z,19.34
2023-02-17T14:46:55.811Z,18.90
2023-02-17T14:49:22.645Z,18.62
2023-02-17T14:51:49.278Z,18.48
2023-02-17T14:54:17.317Z,18.47
2023-02-17T14:57:12.740Z,18.68
2023-02-17T14:59:44.407Z,18.67
2023-02-17T15:02:17.063Z,19.69
2023-02-17T15:04:43.671Z,19.21
2023-02-17T15:07:13.636Z,18.70
2023-02-17T15:09:41.706Z,18.67
2023-02-17T15:12:20.850Z,18.88
2023-02-17T15:14:48.496Z,18.78
2023-02-17T15:17:16.158Z,18.09
2023-02-17T15:19:44.802Z,18.47
2023-02-17T15:22:13.530Z,18.67
2023-02-17T15:24:41.042Z,18.74
2023-02-17T15:27:11.772Z,18.27
2023-02-17T15:29:38.375Z,17.97
2023-02-17T15:32:15.185Z,18.31
2023-02-17T15:34:41.777Z,17.79
2023-02-17T15:37:09.843Z,18.25
2023-02-17T15:39:36.424Z,18.75
2023-02-17T15:42:10.337Z,18.62
2023-02-17T15:44:40.970Z,18.82
2023-02-17T15:47:13.793Z,18.08
2023-02-17T15:49:40.381Z,18.32
2023-02-17T15:52:12.533Z,18.45
2023-02-17T15:54:43.194Z,18.08
2023-02-17T15:57:22.432Z,17.65
2023-02-17T15:59:49.372Z,17.88
2023-02-17T16:02:24.156Z,18.15
2023-02-17T16:04:50.747Z,17.44
2023-02-17T16:07:17.357Z,17.56
2023-02-17T16:09:43.913Z,17.82
2023-02-17T16:12:27.016Z,18.26
2023-02-17T16:14:55.336Z,18.16
2023-02-17T16:17:22.193Z,18.05
2023-02-17T16:19:48.801Z,18.44
2023-02-17T16:22:15.389Z,18.68
2023-02-17T16:24:41.928Z,18.52
2023-02-17T16:27:14.393Z,17.37
2023-02-17T16:29:41.687Z,17.69
2023-02-17T16:32:11.843Z,17.72
2023-02-17T16:34:39.001Z,17.71
2023-02-17T16:37:13.152Z,17.22
2023-02-17T16:39:39.873Z,17.69
2023-02-17T16:42:06.410Z,17.52
2023-02-17T16:44:33.023Z,17.65
2023-02-17T16:47:01.556Z,17.86
2023-02-17T16:49:33.260Z,17.76
2023-02-17T16:52:00.718Z,17.69
2023-02-17T16:54:27.345Z,17.04
2023-02-17T16:56:54.908Z,17.21
2023-02-17T16:59:23.575Z,17.55
2023-02-17T17:01:51.106Z,17.43
2023-02-17T17:04:17.809Z,17.35
2023-02-17T17:06:47.794Z,16.42
2023-02-17T17:09:21.111Z,16.85
2023-02-17T17:11:47.839Z,16.99
2023-02-17T17:14:14.790Z,16.58
2023-02-17T17:16:45.305Z,16.72
2023-02-17T17:19:13.419Z,17.37
2023-02-17T17:21:40.138Z,16.29
2023-02-17T17:24:06.775Z,16.59
2023-02-17T17:26:40.621Z,16.55
2023-02-17T17:29:08.437Z,17.03
2023-02-17T17:31:35.144Z,17.23
2023-02-17T17:34:01.775Z,17.29
2023-02-17T17:36:37.699Z,17.50
2023-02-17T17:39:06.399Z,17.18
2023-02-17T17:41:33.087Z,17.19
2023-02-17T17:43:59.872Z,17.38
2023-02-17T17:46:29.404Z,16.78
2023-02-17T17:48:58.838Z,16.42
2023-02-17T17:51:27.417Z,17.01
2023-02-17T17:53:54.889Z,16.91
2023-02-17T17:56:22.992Z,16.97
2023-02-17T17:58:50.655Z,16.68
2023-02-17T18:01:19.192Z,16.74
2023-02-17T18:03:46.024Z,16.49
2023-02-17T18:06:22.778Z,17.08
2023-02-17T18:08:50.594Z,16.60
2023-02-17T18:11:21.097Z,16.55
2023-02-17T18:13:51.688Z,16.38
2023-02-17T18:16:21.672Z,16.66
2023-02-17T18:18:49.788Z,16.85
2023-02-17T18:21:16.565Z,17.77
2023-02-17T18:23:43.172Z,17.43
2023-02-17T18:26:11.872Z,17.61
2023-02-17T18:28:38.739Z,17.25
2023-02-17T18:31:09.895Z,17.14
2023-02-17T18:33:37.122Z,17.46
2023-02-17T18:36:18.664Z,16.58
2023-02-17T18:38:45.796Z,16.84
2023-02-17T18:41:26.938Z,16.83
2023-02-17T18:43:54.452Z,17.65
2023-02-17T18:46:21.052Z,17.67
2023-02-17T18:48:47.739Z,16.67
2023-02-17T18:51:16.338Z,16.70
2023-02-17T18:53:42.881Z,17.05
2023-02-17T18:56:22.753Z,17.62
2023-02-17T18:58:51.243Z,17.05
2023-02-17T19:01:25.788Z,17.35
2023-02-17T19:03:52.905Z,17.25
2023-02-17T19:06:22.327Z,17.04
2023-02-17T19:08:49.413Z,17.66
2023-02-17T19:11:17.878Z,17.57
2023-02-17T19:13:44.806Z,17.59
2023-02-17T19:16:15.263Z,17.09
2023-02-17T19:18:42.822Z,17.23
2023-02-17T19:21:09.965Z,17.24
2023-02-17T19:23:37.082Z,17.39
2023-02-17T19:26:06.931Z,17.13
2023-02-17T19:28:35.899Z,16.86
2023-02-17T19:31:07.124Z,17.34
2023-02-17T19:33:34.272Z,17.24
2023-02-17T19:36:05.508Z,17.41
2023-02-17T19:38:32.808Z,17.71
2023-02-17T19:41:03.229Z,17.36
2023-02-17T19:43:29.851Z,16.96
2023-02-17T19:45:56.753Z,16.95
2023-02-17T19:48:24.246Z,17.21
2023-02-17T19:50:52.142Z,18.10
2023-02-17T19:53:18.981Z,17.87
2023-02-17T19:55:45.528Z,17.09
2023-02-17T19:58:12.138Z,17.57
2023-02-17T20:00:38.756Z,16.87
2023-02-17T20:03:05.381Z,17.37
2023-02-17T20:05:36.899Z,16.90
2023-02-17T20:08:03.486Z,17.60
2023-02-17T20:10:30.070Z,17.01
2023-02-17T20:12:56.656Z,17.17
2023-02-17T20:15:23.269Z,17.32
2023-02-17T20:17:49.818Z,17.57
2023-02-17T20:20:16.601Z,17.48
2023-02-17T20:22:43.200Z,16.97
2023-02-17T20:25:09.855Z,17.20
2023-02-17T20:27:36.389Z,17.15
2023-02-17T20:30:03.147Z,17.24
2023-02-17T20:32:30.023Z,17.28
2023-02-17T20:34:56.697Z,17.24
2023-02-17T20:37:23.228Z,17.27
2023-02-17T20:39:49.930Z,17.24
2023-02-17T20:42:16.559Z,17.43
2023-02-17T20:44:43.135Z,17.41
2023-02-17T20:47:11.029Z,17.77
2023-02-17T20:49:37.679Z,17.57
2023-02-17T20:52:05.770Z,17.93
2023-02-17T20:54:32.452Z,17.80
2023-02-17T20:57:01.002Z,17.51
2023-02-17T20:59:27.613Z,18.00
2023-02-17T21:01:54.216Z,17.93
2023-02-17T21:04:20.742Z,17.53
2023-02-17T21:06:47.394Z,17.86
2023-02-17T21:09:17.456Z,17.71
2023-02-17T21:11:44.635Z,17.93
2023-02-17T21:14:11.500Z,17.73
2023-02-17T21:16:38.364Z,17.41
2023-02-17T21:19:05.068Z,18.11
2023-02-17T21:21:32.694Z,18.03
2023-02-17T21:23:59.737Z,18.27
2023-02-17T21:26:26.498Z,18.12
2023-02-17T21:28:53.407Z,18.32
2023-02-17T21:31:20.080Z,18.01
2023-02-17T21:33:46.720Z,17.84
2023-02-17T21:36:16.870Z,18.00
2023-02-17T21:38:44.078Z,17.89
2023-02-17T21:41:16.327Z,18.12
2023-02-17T21:44:02.079Z,18.08
2023-02-17T21:46:30.230Z,18.47
2023-02-17T21:49:01.342Z,18.69
2023-02-17T21:51:28.309Z,18.16
2023-02-17T21:53:55.217Z,18.46
2023-02-17T21:56:23.024Z,18.28
2023-02-17T21:58:52.223Z,18.45
2023-02-17T22:01:19.623Z,18.52
2023-02-17T22:03:46.247Z,18.38
2023-02-17T22:06:24.707Z,18.37
2023-02-17T22:08:51.884Z,18.14
2023-02-17T22:11:30.799Z,17.25
2023-02-17T22:14:03.646Z,18.32
2023-02-17T22:16:35.098Z,17.78
2023-02-17T22:19:02.458Z,17.95
2023-02-17T22:21:29.298Z,17.23
2023-02-17T22:23:57.788Z,17.23
2023-02-17T22:26:26.008Z,18.06
2023-02-17T22:28:53.490Z,17.36
2023-02-17T22:31:22.709Z,17.46
2023-02-17T22:33:49.420Z,18.13
2023-02-17T22:36:22.059Z,17.81
2023-02-17T22:38:49.652Z,17.04
2023-02-17T22:41:19.607Z,17.15
2023-02-17T22:43:47.278Z,17.80
2023-02-17T22:46:16.403Z,17.71
2023-02-17T22:48:45.576Z,17.13
2023-02-17T22:51:17.878Z,17.74
2023-02-17T22:53:44.976Z,18.24
2023-02-17T22:56:12.550Z,17.73
2023-02-17T22:58:39.595Z,18.02
2023-02-17T23:01:11.418Z,17.93
2023-02-17T23:03:38.486Z,17.84
2023-02-17T23:06:12.009Z,18.38
2023-02-17T23:08:38.747Z,18.28
2023-02-17T23:11:06.827Z,17.71
2023-02-17T23:13:34.140Z,17.51
2023-02-17T23:16:01.313Z,18.02
2023-02-17T23:18:30.204Z,18.07
2023-02-17T23:20:56.735Z,18.04
2023-02-17T23:23:24.094Z,17.43
2023-02-17T23:25:53.055Z,18.29
2023-02-17T23:28:21.475Z,17.73
2023-02-17T23:30:48.751Z,17.97
2023-02-17T23:33:22.120Z,17.80
2023-02-17T23:35:48.772Z,17.40
2023-02-17T23:38:18.139Z,17.47
2023-02-17T23:40:48.903Z,18.07
2023-02-17T23:43:16.146Z,17.76
2023-02-17T23:45:42.883Z,17.64
2023-02-17T23:48:09.585Z,17.25
2023-02-17T23:50:36.152Z,17.59
2023-02-17T23:53:02.876Z,18.06
2023-02-17T23:55:29.448Z,17.66
2023-02-17T23:57:56.049Z,17.29
